sensor_id;sensor_type;location;lat;lon;timestamp;P1;durP1;ratioP1;P2;durP2;ratioP2
43529;SDS011;55654;50.966;6.878;2023-07-13T00:00:27;8.23;;;1.20;;
43529;SDS011;55654;50.966;6.878;2023-07-13T00:02:54;6.78;;;1.67;;
43529;SDS011;55654;50.966;6.878;2023-07-13T00:05:20;3.38;;;1.08;;
43529;SDS011;55654;50.966;6.878;2023-07-13T00:07:47;2.08;;;0.82;;
43529;SDS011;55654;50.966;6.878;2023-07-13T00:10:13;3.30;;;0.98;;
43529;SDS011;55654;50.966;6.878;2023-07-13T00:12:39;2.22;;;0.55;;
43529;SDS011;55654;50.966;6.878;2023-07-13T00:15:13;8.60;;;1.23;;
43529;SDS011;55654;50.966;6.878;2023-07-13T00:17:41;7.60;;;1.10;;
43529;SDS011;55654;50.966;6.878;2023-07-13T00:20:10;3.45;;;0.93;;
43529;SDS011;55654;50.966;6.878;2023-07-13T00:22:36;8.73;;;0.98;;
43529;SDS011;55654;50.966;6.878;2023-07-13T00:25:02;5.47;;;0.88;;
43529;SDS011;55654;50.966;6.878;2023-07-13T00:27:28;6.40;;;1.10;;
43529;SDS011;55654;50.966;6.878;2023-07-13T00:29:58;5.80;;;0.98;;
43529;SDS011;55654;50.966;6.878;2023-07-13T00:32:24;4.85;;;1.02;;
43529;SDS011;55654;50.966;6.878;2023-07-13T00:34:51;7.25;;;0.85;;
43529;SDS011;55654;50.966;6.878;2023-07-13T00:37:19;6.18;;;1.30;;
43529;SDS011;55654;50.966;6.878;2023-07-13T00:39:45;5.43;;;0.85;;
43529;SDS011;55654;50.966;6.878;2023-07-13T00:42:11;4.70;;;0.98;;
43529;SDS011;55654;50.966;6.878;2023-07-13T00:44:38;5.22;;;0.85;;
43529;SDS011;55654;50.966;6.878;2023-07-13T00:47:05;13.80;;;1.38;;
43529;SDS011;55654;50.966;6.878;2023-07-13T00:49:32;7.38;;;1.10;;
43529;SDS011;55654;50.966;6.878;2023-07-13T00:52:00;5.30;;;0.80;;
43529;SDS011;55654;50.966;6.878;2023-07-13T00:54:30;9.00;;;1.17;;
43529;SDS011;55654;50.966;6.878;2023-07-13T00:56:58;6.05;;;1.00;;
43529;SDS011;55654;50.966;6.878;2023-07-13T00:59:25;4.38;;;0.95;;
43529;SDS011;55654;50.966;6.878;2023-07-13T01:01:51;7.90;;;0.88;;
43529;SDS011;55654;50.966;6.878;2023-07-13T01:04:18;6.78;;;1.10;;
43529;SDS011;55654;50.966;6.878;2023-07-13T01:06:44;2.53;;;0.85;;
43529;SDS011;55654;50.966;6.878;2023-07-13T01:09:12;5.88;;;1.38;;
43529;SDS011;55654;50.966;6.878;2023-07-13T01:11:38;4.63;;;0.70;;
43529;SDS011;55654;50.966;6.878;2023-07-13T01:14:05;8.50;;;1.73;;
43529;SDS011;55654;50.966;6.878;2023-07-13T01:16:32;4.63;;;1.35;;
43529;SDS011;55654;50.966;6.878;2023-07-13T01:18:59;6.95;;;1.15;;
43529;SDS011;55654;50.966;6.878;2023-07-13T01:21:27;2.78;;;1.17;;
43529;SDS011;55654;50.966;6.878;2023-07-13T01:23:53;4.90;;;0.85;;
43529;SDS011;55654;50.966;6.878;2023-07-13T01:26:19;3.75;;;1.00;;
43529;SDS011;55654;50.966;6.878;2023-07-13T01:28:45;11.65;;;1.30;;
43529;SDS011;55654;50.966;6.878;2023-07-13T01:31:11;6.63;;;1.15;;
43529;SDS011;55654;50.966;6.878;2023-07-13T01:33:40;5.43;;;1.00;;
43529;SDS011;55654;50.966;6.878;2023-07-13T01:36:07;5.18;;;0.90;;
43529;SDS011;55654;50.966;6.878;2023-07-13T01:38:34;7.00;;;1.05;;
43529;SDS011;55654;50.966;6.878;2023-07-13T01:41:00;2.15;;;0.90;;
43529;SDS011;55654;50.966;6.878;2023-07-13T01:43:26;4.13;;;0.93;;
43529;SDS011;55654;50.966;6.878;2023-07-13T01:45:56;2.40;;;0.75;;
43529;SDS011;55654;50.966;6.878;2023-07-13T01:48:22;5.22;;;1.08;;
43529;SDS011;55654;50.966;6.878;2023-07-13T01:50:48;9.45;;;1.83;;
43529;SDS011;55654;50.966;6.878;2023-07-13T01:53:14;5.68;;;1.00;;
43529;SDS011;55654;50.966;6.878;2023-07-13T01:55:41;2.60;;;0.50;;
43529;SDS011;55654;50.966;6.878;2023-07-13T01:58:07;4.18;;;1.08;;
43529;SDS011;55654;50.966;6.878;2023-07-13T02:00:34;4.93;;;0.90;;
43529;SDS011;55654;50.966;6.878;2023-07-13T02:03:00;5.88;;;1.10;;
43529;SDS011;55654;50.966;6.878;2023-07-13T02:05:26;4.63;;;1.17;;
43529;SDS011;55654;50.966;6.878;2023-07-13T02:07:52;4.35;;;0.80;;
43529;SDS011;55654;50.966;6.878;2023-07-13T02:10:18;6.38;;;1.13;;
43529;SDS011;55654;50.966;6.878;2023-07-13T02:12:44;3.10;;;1.05;;
43529;SDS011;55654;50.966;6.878;2023-07-13T02:15:10;7.60;;;1.25;;
43529;SDS011;55654;50.966;6.878;2023-07-13T02:17:37;3.75;;;1.00;;
43529;SDS011;55654;50.966;6.878;2023-07-13T02:20:03;5.43;;;1.00;;
43529;SDS011;55654;50.966;6.878;2023-07-13T02:22:30;5.88;;;1.38;;
43529;SDS011;55654;50.966;6.878;2023-07-13T02:24:58;3.25;;;0.90;;
43529;SDS011;55654;50.966;6.878;2023-07-13T02:27:24;6.05;;;1.10;;
43529;SDS011;55654;50.966;6.878;2023-07-13T02:29:50;3.47;;;0.80;;
43529;SDS011;55654;50.966;6.878;2023-07-13T02:32:17;2.78;;;0.82;;
43529;SDS011;55654;50.966;6.878;2023-07-13T02:34:43;4.85;;;0.93;;
43529;SDS011;55654;50.966;6.878;2023-07-13T02:37:09;3.33;;;1.20;;
43529;SDS011;55654;50.966;6.878;2023-07-13T02:39:35;6.05;;;1.02;;
43529;SDS011;55654;50.966;6.878;2023-07-13T02:42:01;4.93;;;0.95;;
43529;SDS011;55654;50.966;6.878;2023-07-13T02:44:28;5.75;;;1.50;;
43529;SDS011;55654;50.966;6.878;2023-07-13T02:46:54;5.90;;;1.00;;
43529;SDS011;55654;50.966;6.878;2023-07-13T02:49:20;3.38;;;0.85;;
43529;SDS011;55654;50.966;6.878;2023-07-13T02:51:46;2.83;;;0.82;;
43529;SDS011;55654;50.966;6.878;2023-07-13T02:54:12;3.22;;;1.00;;
43529;SDS011;55654;50.966;6.878;2023-07-13T02:56:39;4.88;;;1.17;;
43529;SDS011;55654;50.966;6.878;2023-07-13T02:59:05;3.95;;;0.88;;
43529;SDS011;55654;50.966;6.878;2023-07-13T03:01:31;2.30;;;1.05;;
43529;SDS011;55654;50.966;6.878;2023-07-13T03:04:00;5.75;;;0.93;;
43529;SDS011;55654;50.966;6.878;2023-07-13T03:06:26;3.33;;;1.65;;
43529;SDS011;55654;50.966;6.878;2023-07-13T03:08:55;4.97;;;1.27;;
43529;SDS011;55654;50.966;6.878;2023-07-13T03:11:21;3.60;;;1.10;;
43529;SDS011;55654;50.966;6.878;2023-07-13T03:13:48;3.78;;;0.95;;
43529;SDS011;55654;50.966;6.878;2023-07-13T03:16:14;4.88;;;1.45;;
43529;SDS011;55654;50.966;6.878;2023-07-13T03:18:41;3.87;;;1.27;;
43529;SDS011;55654;50.966;6.878;2023-07-13T03:21:07;5.10;;;1.00;;
43529;SDS011;55654;50.966;6.878;2023-07-13T03:23:33;3.95;;;0.90;;
43529;SDS011;55654;50.966;6.878;2023-07-13T03:26:07;4.82;;;1.25;;
43529;SDS011;55654;50.966;6.878;2023-07-13T03:28:34;5.72;;;1.30;;
43529;SDS011;55654;50.966;6.878;2023-07-13T03:31:05;3.65;;;1.25;;
43529;SDS011;55654;50.966;6.878;2023-07-13T03:33:31;7.05;;;1.05;;
43529;SDS011;55654;50.966;6.878;2023-07-13T03:35:57;2.97;;;1.00;;
43529;SDS011;55654;50.966;6.878;2023-07-13T03:38:25;4.50;;;1.27;;
43529;SDS011;55654;50.966;6.878;2023-07-13T03:40:51;4.60;;;1.07;;
43529;SDS011;55654;50.966;6.878;2023-07-13T03:43:18;2.73;;;0.73;;
43529;SDS011;55654;50.966;6.878;2023-07-13T03:45:45;4.20;;;1.17;;
43529;SDS011;55654;50.966;6.878;2023-07-13T03:48:11;6.57;;;1.10;;
43529;SDS011;55654;50.966;6.878;2023-07-13T03:50:37;4.75;;;1.50;;
43529;SDS011;55654;50.966;6.878;2023-07-13T03:53:03;5.90;;;1.60;;
43529;SDS011;55654;50.966;6.878;2023-07-13T03:55:30;7.25;;;1.67;;
43529;SDS011;55654;50.966;6.878;2023-07-13T03:58:00;5.95;;;1.25;;
43529;SDS011;55654;50.966;6.878;2023-07-13T04:00:27;3.92;;;1.23;;
43529;SDS011;55654;50.966;6.878;2023-07-13T04:02:53;6.18;;;1.30;;
43529;SDS011;55654;50.966;6.878;2023-07-13T04:05:19;5.03;;;1.00;;
43529;SDS011;55654;50.966;6.878;2023-07-13T04:07:45;4.03;;;1.53;;
43529;SDS011;55654;50.966;6.878;2023-07-13T04:10:11;7.03;;;1.00;;
43529;SDS011;55654;50.966;6.878;2023-07-13T04:12:37;4.90;;;1.27;;
43529;SDS011;55654;50.966;6.878;2023-07-13T04:15:04;6.73;;;1.57;;
43529;SDS011;55654;50.966;6.878;2023-07-13T04:17:30;3.53;;;1.25;;
43529;SDS011;55654;50.966;6.878;2023-07-13T04:19:56;4.65;;;1.23;;
43529;SDS011;55654;50.966;6.878;2023-07-13T04:22:22;5.65;;;1.73;;
43529;SDS011;55654;50.966;6.878;2023-07-13T04:24:48;6.03;;;1.13;;
43529;SDS011;55654;50.966;6.878;2023-07-13T04:27:14;3.45;;;0.82;;
43529;SDS011;55654;50.966;6.878;2023-07-13T04:29:40;3.53;;;1.17;;
43529;SDS011;55654;50.966;6.878;2023-07-13T04:32:06;8.60;;;1.20;;
43529;SDS011;55654;50.966;6.878;2023-07-13T04:34:33;5.10;;;1.52;;
43529;SDS011;55654;50.966;6.878;2023-07-13T04:36:59;5.10;;;1.35;;
43529;SDS011;55654;50.966;6.878;2023-07-13T04:39:26;5.15;;;1.17;;
43529;SDS011;55654;50.966;6.878;2023-07-13T04:41:52;5.00;;;1.17;;
43529;SDS011;55654;50.966;6.878;2023-07-13T04:44:18;3.78;;;1.20;;
43529;SDS011;55654;50.966;6.878;2023-07-13T04:46:44;4.20;;;1.05;;
43529;SDS011;55654;50.966;6.878;2023-07-13T04:49:10;7.60;;;1.00;;
43529;SDS011;55654;50.966;6.878;2023-07-13T04:51:36;3.08;;;1.15;;
43529;SDS011;55654;50.966;6.878;2023-07-13T04:54:02;5.10;;;1.23;;
43529;SDS011;55654;50.966;6.878;2023-07-13T04:56:30;2.85;;;0.93;;
43529;SDS011;55654;50.966;6.878;2023-07-13T04:58:56;6.82;;;1.67;;
43529;SDS011;55654;50.966;6.878;2023-07-13T05:01:23;7.38;;;1.70;;
43529;SDS011;55654;50.966;6.878;2023-07-13T05:03:50;4.93;;;1.23;;
43529;SDS011;55654;50.966;6.878;2023-07-13T05:06:20;7.32;;;1.55;;
43529;SDS011;55654;50.966;6.878;2023-07-13T05:08:46;7.30;;;1.33;;
43529;SDS011;55654;50.966;6.878;2023-07-13T05:11:13;8.50;;;1.33;;
43529;SDS011;55654;50.966;6.878;2023-07-13T05:13:39;6.47;;;1.50;;
43529;SDS011;55654;50.966;6.878;2023-07-13T05:16:05;13.20;;;1.65;;
43529;SDS011;55654;50.966;6.878;2023-07-13T05:18:32;4.68;;;1.00;;
43529;SDS011;55654;50.966;6.878;2023-07-13T05:21:02;9.60;;;1.30;;
43529;SDS011;55654;50.966;6.878;2023-07-13T05:23:29;5.80;;;1.40;;
43529;SDS011;55654;50.966;6.878;2023-07-13T05:25:55;5.22;;;1.55;;
43529;SDS011;55654;50.966;6.878;2023-07-13T05:28:22;12.25;;;1.58;;
43529;SDS011;55654;50.966;6.878;2023-07-13T05:30:48;5.80;;;1.73;;
43529;SDS011;55654;50.966;6.878;2023-07-13T05:33:14;10.60;;;1.50;;
43529;SDS011;55654;50.966;6.878;2023-07-13T05:35:40;9.82;;;1.60;;
43529;SDS011;55654;50.966;6.878;2023-07-13T05:38:06;5.50;;;1.20;;
43529;SDS011;55654;50.966;6.878;2023-07-13T05:40:33;4.70;;;1.33;;
43529;SDS011;55654;50.966;6.878;2023-07-13T05:42:59;7.38;;;1.50;;
43529;SDS011;55654;50.966;6.878;2023-07-13T05:45:25;6.53;;;1.65;;
43529;SDS011;55654;50.966;6.878;2023-07-13T05:47:51;5.53;;;1.77;;
43529;SDS011;55654;50.966;6.878;2023-07-13T05:50:17;3.60;;;1.10;;
43529;SDS011;55654;50.966;6.878;2023-07-13T05:52:43;5.10;;;1.52;;
43529;SDS011;55654;50.966;6.878;2023-07-13T05:55:12;5.68;;;1.30;;
43529;SDS011;55654;50.966;6.878;2023-07-13T05:57:38;8.18;;;1.73;;
43529;SDS011;55654;50.966;6.878;2023-07-13T06:00:07;14.23;;;2.15;;
43529;SDS011;55654;50.966;6.878;2023-07-13T06:02:33;6.68;;;1.70;;
43529;SDS011;55654;50.966;6.878;2023-07-13T06:04:59;9.52;;;1.83;;
43529;SDS011;55654;50.966;6.878;2023-07-13T06:07:25;8.38;;;2.15;;
43529;SDS011;55654;50.966;6.878;2023-07-13T06:09:51;8.35;;;1.65;;
43529;SDS011;55654;50.966;6.878;2023-07-13T06:12:18;6.85;;;1.40;;
43529;SDS011;55654;50.966;6.878;2023-07-13T06:14:44;6.47;;;1.70;;
43529;SDS011;55654;50.966;6.878;2023-07-13T06:17:10;6.78;;;1.63;;
43529;SDS011;55654;50.966;6.878;2023-07-13T06:19:36;6.82;;;1.70;;
43529;SDS011;55654;50.966;6.878;2023-07-13T06:22:02;12.98;;;2.20;;
43529;SDS011;55654;50.966;6.878;2023-07-13T06:24:28;10.48;;;2.72;;
43529;SDS011;55654;50.966;6.878;2023-07-13T06:26:54;9.52;;;2.13;;
43529;SDS011;55654;50.966;6.878;2023-07-13T06:29:20;7.55;;;1.67;;
43529;SDS011;55654;50.966;6.878;2023-07-13T06:31:46;12.10;;;2.50;;
43529;SDS011;55654;50.966;6.878;2023-07-13T06:34:12;11.10;;;1.67;;
43529;SDS011;55654;50.966;6.878;2023-07-13T06:36:38;15.60;;;2.80;;
43529;SDS011;55654;50.966;6.878;2023-07-13T06:39:06;8.93;;;2.15;;
43529;SDS011;55654;50.966;6.878;2023-07-13T06:41:32;8.65;;;1.65;;
43529;SDS011;55654;50.966;6.878;2023-07-13T06:43:58;9.93;;;2.10;;
43529;SDS011;55654;50.966;6.878;2023-07-13T06:46:24;13.68;;;2.03;;
43529;SDS011;55654;50.966;6.878;2023-07-13T06:48:50;5.65;;;2.00;;
43529;SDS011;55654;50.966;6.878;2023-07-13T06:51:16;8.10;;;1.83;;
43529;SDS011;55654;50.966;6.878;2023-07-13T06:53:42;7.97;;;2.20;;
43529;SDS011;55654;50.966;6.878;2023-07-13T06:56:10;9.23;;;2.33;;
43529;SDS011;55654;50.966;6.878;2023-07-13T06:58:39;6.57;;;2.38;;
43529;SDS011;55654;50.966;6.878;2023-07-13T07:01:05;7.13;;;1.67;;
43529;SDS011;55654;50.966;6.878;2023-07-13T07:03:31;8.02;;;1.75;;
43529;SDS011;55654;50.966;6.878;2023-07-13T07:06:01;6.95;;;1.80;;
43529;SDS011;55654;50.966;6.878;2023-07-13T07:08:28;10.23;;;1.80;;
43529;SDS011;55654;50.966;6.878;2023-07-13T07:10:54;8.77;;;2.08;;
43529;SDS011;55654;50.966;6.878;2023-07-13T07:13:20;4.20;;;1.30;;
43529;SDS011;55654;50.966;6.878;2023-07-13T07:15:46;8.93;;;2.10;;
43529;SDS011;55654;50.966;6.878;2023-07-13T07:18:14;8.48;;;2.13;;
43529;SDS011;55654;50.966;6.878;2023-07-13T07:20:40;12.20;;;2.50;;
43529;SDS011;55654;50.966;6.878;2023-07-13T07:23:08;13.18;;;2.58;;
43529;SDS011;55654;50.966;6.878;2023-07-13T07:25:34;6.57;;;1.77;;
43529;SDS011;55654;50.966;6.878;2023-07-13T07:28:02;8.82;;;2.38;;
43529;SDS011;55654;50.966;6.878;2023-07-13T07:30:28;15.50;;;2.22;;
43529;SDS011;55654;50.966;6.878;2023-07-13T07:32:57;8.60;;;2.10;;
43529;SDS011;55654;50.966;6.878;2023-07-13T07:35:26;13.63;;;2.45;;
43529;SDS011;55654;50.966;6.878;2023-07-13T07:37:52;9.52;;;2.08;;
43529;SDS011;55654;50.966;6.878;2023-07-13T07:40:20;9.30;;;1.75;;
43529;SDS011;55654;50.966;6.878;2023-07-13T07:42:49;5.70;;;1.95;;
43529;SDS011;55654;50.966;6.878;2023-07-13T07:45:15;9.80;;;2.13;;
43529;SDS011;55654;50.966;6.878;2023-07-13T07:47:41;11.55;;;2.63;;
43529;SDS011;55654;50.966;6.878;2023-07-13T07:50:07;10.60;;;1.65;;
43529;SDS011;55654;50.966;6.878;2023-07-13T07:52:33;11.65;;;2.92;;
43529;SDS011;55654;50.966;6.878;2023-07-13T07:54:59;8.30;;;2.03;;
43529;SDS011;55654;50.966;6.878;2023-07-13T07:57:28;13.48;;;2.38;;
43529;SDS011;55654;50.966;6.878;2023-07-13T07:59:54;8.93;;;2.90;;
43529;SDS011;55654;50.966;6.878;2023-07-13T08:02:20;8.80;;;2.20;;
43529;SDS011;55654;50.966;6.878;2023-07-13T08:04:48;9.48;;;2.17;;
43529;SDS011;55654;50.966;6.878;2023-07-13T08:07:14;9.20;;;2.28;;
43529;SDS011;55654;50.966;6.878;2023-07-13T08:09:40;11.02;;;1.90;;
43529;SDS011;55654;50.966;6.878;2023-07-13T08:12:06;10.10;;;2.28;;
43529;SDS011;55654;50.966;6.878;2023-07-13T08:14:32;10.68;;;1.83;;
43529;SDS011;55654;50.966;6.878;2023-07-13T08:16:58;9.18;;;2.20;;
43529;SDS011;55654;50.966;6.878;2023-07-13T08:19:27;7.70;;;2.05;;
43529;SDS011;55654;50.966;6.878;2023-07-13T08:21:53;10.02;;;2.53;;
43529;SDS011;55654;50.966;6.878;2023-07-13T08:24:21;8.38;;;2.10;;
43529;SDS011;55654;50.966;6.878;2023-07-13T08:26:47;9.73;;;2.42;;
43529;SDS011;55654;50.966;6.878;2023-07-13T08:29:13;11.88;;;2.53;;
43529;SDS011;55654;50.966;6.878;2023-07-13T08:31:39;9.73;;;2.28;;
43529;SDS011;55654;50.966;6.878;2023-07-13T08:34:07;10.35;;;2.10;;
43529;SDS011;55654;50.966;6.878;2023-07-13T08:36:33;13.40;;;2.83;;
43529;SDS011;55654;50.966;6.878;2023-07-13T08:38:59;10.80;;;2.70;;
43529;SDS011;55654;50.966;6.878;2023-07-13T08:41:25;11.50;;;2.25;;
43529;SDS011;55654;50.966;6.878;2023-07-13T08:43:56;9.80;;;2.10;;
43529;SDS011;55654;50.966;6.878;2023-07-13T08:51:26;9.13;;;1.90;;
43529;SDS011;55654;50.966;6.878;2023-07-13T08:53:58;9.20;;;2.30;;
43529;SDS011;55654;50.966;6.878;2023-07-13T08:56:26;8.00;;;1.80;;
43529;SDS011;55654;50.966;6.878;2023-07-13T08:58:55;13.48;;;2.33;;
43529;SDS011;55654;50.966;6.878;2023-07-13T09:01:23;3.38;;;1.20;;
43529;SDS011;55654;50.966;6.878;2023-07-13T09:06:42;12.35;;;1.85;;
43529;SDS011;55654;50.966;6.878;2023-07-13T09:09:16;10.38;;;2.92;;
43529;SDS011;55654;50.966;6.878;2023-07-13T09:16:57;5.80;;;1.58;;
43529;SDS011;55654;50.966;6.878;2023-07-13T09:19:26;5.93;;;2.25;;
43529;SDS011;55654;50.966;6.878;2023-07-13T09:21:53;7.72;;;1.75;;
43529;SDS011;55654;50.966;6.878;2023-07-13T09:27:13;8.43;;;1.67;;
43529;SDS011;55654;50.966;6.878;2023-07-13T09:29:42;6.22;;;1.40;;
43529;SDS011;55654;50.966;6.878;2023-07-13T09:32:11;5.03;;;1.17;;
43529;SDS011;55654;50.966;6.878;2023-07-13T09:34:38;10.25;;;1.98;;
43529;SDS011;55654;50.966;6.878;2023-07-13T09:37:04;7.65;;;1.92;;
43529;SDS011;55654;50.966;6.878;2023-07-13T09:39:35;3.67;;;1.20;;
43529;SDS011;55654;50.966;6.878;2023-07-13T09:42:15;11.95;;;1.73;;
43529;SDS011;55654;50.966;6.878;2023-07-13T09:47:17;6.97;;;1.60;;
43529;SDS011;55654;50.966;6.878;2023-07-13T09:49:44;8.48;;;1.55;;
43529;SDS011;55654;50.966;6.878;2023-07-13T09:52:11;9.35;;;1.73;;
43529;SDS011;55654;50.966;6.878;2023-07-13T09:54:39;4.57;;;1.30;;
43529;SDS011;55654;50.966;6.878;2023-07-13T09:57:12;6.18;;;1.20;;
43529;SDS011;55654;50.966;6.878;2023-07-13T09:59:46;9.18;;;1.25;;
43529;SDS011;55654;50.966;6.878;2023-07-13T10:04:57;5.53;;;1.77;;
43529;SDS011;55654;50.966;6.878;2023-07-13T10:07:24;5.70;;;1.58;;
43529;SDS011;55654;50.966;6.878;2023-07-13T10:09:53;7.13;;;1.45;;
43529;SDS011;55654;50.966;6.878;2023-07-13T10:12:19;7.82;;;1.35;;
43529;SDS011;55654;50.966;6.878;2023-07-13T10:14:45;6.80;;;1.55;;
43529;SDS011;55654;50.966;6.878;2023-07-13T10:17:14;6.20;;;1.33;;
43529;SDS011;55654;50.966;6.878;2023-07-13T10:19:41;11.88;;;1.85;;
43529;SDS011;55654;50.966;6.878;2023-07-13T10:22:23;5.20;;;1.20;;
43529;SDS011;55654;50.966;6.878;2023-07-13T10:24:51;12.77;;;1.70;;
43529;SDS011;55654;50.966;6.878;2023-07-13T10:27:19;6.72;;;1.80;;
43529;SDS011;55654;50.966;6.878;2023-07-13T10:29:50;5.32;;;1.20;;
43529;SDS011;55654;50.966;6.878;2023-07-13T10:32:18;4.05;;;1.25;;
43529;SDS011;55654;50.966;6.878;2023-07-13T10:34:45;6.82;;;1.42;;
43529;SDS011;55654;50.966;6.878;2023-07-13T10:37:16;8.35;;;1.63;;
43529;SDS011;55654;50.966;6.878;2023-07-13T10:39:45;3.70;;;1.15;;
43529;SDS011;55654;50.966;6.878;2023-07-13T10:42:13;5.80;;;1.45;;
43529;SDS011;55654;50.966;6.878;2023-07-13T10:44:43;13.57;;;1.67;;
43529;SDS011;55654;50.966;6.878;2023-07-13T10:47:13;3.22;;;1.25;;
43529;SDS011;55654;50.966;6.878;2023-07-13T10:49:41;6.30;;;1.20;;
43529;SDS011;55654;50.966;6.878;2023-07-13T10:54:52;4.15;;;1.17;;
43529;SDS011;55654;50.966;6.878;2023-07-13T10:57:19;3.90;;;1.30;;
43529;SDS011;55654;50.966;6.878;2023-07-13T11:00:10;16.77;;;2.10;;
43529;SDS011;55654;50.966;6.878;2023-07-13T11:02:35;5.10;;;1.15;;
43529;SDS011;55654;50.966;6.878;2023-07-13T11:05:13;6.07;;;1.48;;
43529;SDS011;55654;50.966;6.878;2023-07-13T11:07:52;3.05;;;0.77;;
43529;SDS011;55654;50.966;6.878;2023-07-13T11:13:29;9.73;;;1.30;;
43529;SDS011;55654;50.966;6.878;2023-07-13T11:15:52;5.05;;;1.33;;
43529;SDS011;55654;50.966;6.878;2023-07-13T11:18:22;8.73;;;1.85;;
43529;SDS011;55654;50.966;6.878;2023-07-13T11:20:50;9.23;;;1.58;;
43529;SDS011;55654;50.966;6.878;2023-07-13T11:25:42;4.38;;;1.27;;
43529;SDS011;55654;50.966;6.878;2023-07-13T11:30:38;6.00;;;1.35;;
43529;SDS011;55654;50.966;6.878;2023-07-13T11:35:37;3.05;;;0.93;;
43529;SDS011;55654;50.966;6.878;2023-07-13T11:38:09;7.50;;;0.85;;
43529;SDS011;55654;50.966;6.878;2023-07-13T11:40:38;4.60;;;1.35;;
43529;SDS011;55654;50.966;6.878;2023-07-13T11:43:04;4.45;;;1.25;;
43529;SDS011;55654;50.966;6.878;2023-07-13T11:45:32;7.97;;;2.05;;
43529;SDS011;55654;50.966;6.878;2023-07-13T11:47:59;3.42;;;0.98;;
43529;SDS011;55654;50.966;6.878;2023-07-13T11:50:26;5.03;;;0.98;;
43529;SDS011;55654;50.966;6.878;2023-07-13T11:52:52;6.68;;;1.55;;
43529;SDS011;55654;50.966;6.878;2023-07-13T11:55:21;3.63;;;1.20;;
43529;SDS011;55654;50.966;6.878;2023-07-13T11:57:59;7.65;;;1.40;;
43529;SDS011;55654;50.966;6.878;2023-07-13T12:00:29;17.45;;;1.98;;
43529;SDS011;55654;50.966;6.878;2023-07-13T12:02:58;5.68;;;1.42;;
43529;SDS011;55654;50.966;6.878;2023-07-13T12:05:28;5.32;;;1.02;;
43529;SDS011;55654;50.966;6.878;2023-07-13T12:07:56;3.20;;;0.93;;
43529;SDS011;55654;50.966;6.878;2023-07-13T12:10:24;9.52;;;1.30;;
43529;SDS011;55654;50.966;6.878;2023-07-13T12:15:20;5.90;;;1.08;;
43529;SDS011;55654;50.966;6.878;2023-07-13T12:17:47;5.07;;;1.42;;
43529;SDS011;55654;50.966;6.878;2023-07-13T12:25:11;4.25;;;1.40;;
43529;SDS011;55654;50.966;6.878;2023-07-13T12:27:40;5.50;;;0.80;;
43529;SDS011;55654;50.966;6.878;2023-07-13T12:33:06;5.93;;;1.08;;
43529;SDS011;55654;50.966;6.878;2023-07-13T12:35:38;5.78;;;1.02;;
43529;SDS011;55654;50.966;6.878;2023-07-13T12:38:07;5.60;;;1.40;;
43529;SDS011;55654;50.966;6.878;2023-07-13T12:40:34;6.90;;;1.33;;
43529;SDS011;55654;50.966;6.878;2023-07-13T12:43:01;3.38;;;0.88;;
43529;SDS011;55654;50.966;6.878;2023-07-13T12:45:29;5.53;;;1.00;;
43529;SDS011;55654;50.966;6.878;2023-07-13T12:47:56;5.82;;;1.58;;
43529;SDS011;55654;50.966;6.878;2023-07-13T12:50:29;8.10;;;1.48;;
43529;SDS011;55654;50.966;6.878;2023-07-13T12:52:56;5.72;;;1.27;;
43529;SDS011;55654;50.966;6.878;2023-07-13T12:55:25;8.85;;;1.02;;
43529;SDS011;55654;50.966;6.878;2023-07-13T13:00:33;4.80;;;1.23;;
43529;SDS011;55654;50.966;6.878;2023-07-13T13:05:37;3.50;;;0.88;;
43529;SDS011;55654;50.966;6.878;2023-07-13T13:08:03;7.65;;;0.75;;
43529;SDS011;55654;50.966;6.878;2023-07-13T13:10:29;5.05;;;1.10;;
43529;SDS011;55654;50.966;6.878;2023-07-13T13:12:55;3.85;;;0.93;;
43529;SDS011;55654;50.966;6.878;2023-07-13T13:15:21;6.05;;;1.23;;
43529;SDS011;55654;50.966;6.878;2023-07-13T13:17:48;3.63;;;0.88;;
43529;SDS011;55654;50.966;6.878;2023-07-13T13:20:15;2.03;;;0.80;;
43529;SDS011;55654;50.966;6.878;2023-07-13T13:22:41;6.00;;;1.08;;
43529;SDS011;55654;50.966;6.878;2023-07-13T13:25:11;4.25;;;1.20;;
43529;SDS011;55654;50.966;6.878;2023-07-13T13:27:37;3.08;;;0.88;;
43529;SDS011;55654;50.966;6.878;2023-07-13T13:30:05;3.42;;;0.95;;
43529;SDS011;55654;50.966;6.878;2023-07-13T13:32:35;4.63;;;1.35;;
43529;SDS011;55654;50.966;6.878;2023-07-13T13:35:03;3.30;;;1.20;;
43529;SDS011;55654;50.966;6.878;2023-07-13T13:37:31;4.38;;;1.02;;
43529;SDS011;55654;50.966;6.878;2023-07-13T13:39:57;6.85;;;1.27;;
43529;SDS011;55654;50.966;6.878;2023-07-13T13:42:25;7.03;;;1.00;;
43529;SDS011;55654;50.966;6.878;2023-07-13T13:44:53;3.38;;;0.93;;
43529;SDS011;55654;50.966;6.878;2023-07-13T13:47:33;7.43;;;1.08;;
43529;SDS011;55654;50.966;6.878;2023-07-13T13:50:01;7.72;;;0.80;;
43529;SDS011;55654;50.966;6.878;2023-07-13T13:52:27;7.32;;;0.90;;
43529;SDS011;55654;50.966;6.878;2023-07-13T13:54:53;3.72;;;1.05;;
43529;SDS011;55654;50.966;6.878;2023-07-13T13:57:25;5.63;;;1.15;;
43529;SDS011;55654;50.966;6.878;2023-07-13T13:59:51;4.75;;;1.17;;
43529;SDS011;55654;50.966;6.878;2023-07-13T14:04:47;3.78;;;1.00;;
43529;SDS011;55654;50.966;6.878;2023-07-13T14:07:13;4.65;;;1.15;;
43529;SDS011;55654;50.966;6.878;2023-07-13T14:09:39;2.50;;;0.47;;
43529;SDS011;55654;50.966;6.878;2023-07-13T14:12:05;6.38;;;0.85;;
43529;SDS011;55654;50.966;6.878;2023-07-13T14:14:34;3.80;;;0.85;;
43529;SDS011;55654;50.966;6.878;2023-07-13T14:17:00;7.63;;;1.13;;
43529;SDS011;55654;50.966;6.878;2023-07-13T14:19:26;2.60;;;0.88;;
43529;SDS011;55654;50.966;6.878;2023-07-13T14:21:52;8.23;;;1.67;;
43529;SDS011;55654;50.966;6.878;2023-07-13T14:24:21;4.68;;;0.82;;
43529;SDS011;55654;50.966;6.878;2023-07-13T14:26:47;5.10;;;1.02;;
43529;SDS011;55654;50.966;6.878;2023-07-13T14:29:14;2.65;;;1.05;;
43529;SDS011;55654;50.966;6.878;2023-07-13T14:31:40;3.17;;;0.82;;
43529;SDS011;55654;50.966;6.878;2023-07-13T14:34:07;1.70;;;0.68;;
43529;SDS011;55654;50.966;6.878;2023-07-13T14:36:34;4.25;;;0.88;;
43529;SDS011;55654;50.966;6.878;2023-07-13T14:39:05;5.35;;;1.10;;
43529;SDS011;55654;50.966;6.878;2023-07-13T14:41:39;11.43;;;1.33;;
43529;SDS011;55654;50.966;6.878;2023-07-13T14:44:15;1.85;;;0.65;;
43529;SDS011;55654;50.966;6.878;2023-07-13T14:46:41;5.05;;;1.00;;
43529;SDS011;55654;50.966;6.878;2023-07-13T14:51:52;2.83;;;0.88;;
43529;SDS011;55654;50.966;6.878;2023-07-13T14:54:20;3.30;;;1.02;;
43529;SDS011;55654;50.966;6.878;2023-07-13T14:56:46;4.55;;;0.73;;
43529;SDS011;55654;50.966;6.878;2023-07-13T14:59:12;4.60;;;1.42;;
43529;SDS011;55654;50.966;6.878;2023-07-13T15:01:38;2.53;;;0.88;;
43529;SDS011;55654;50.966;6.878;2023-07-13T15:04:05;2.97;;;1.05;;
43529;SDS011;55654;50.966;6.878;2023-07-13T15:06:53;3.25;;;0.90;;
43529;SDS011;55654;50.966;6.878;2023-07-13T15:09:17;4.78;;;0.80;;
43529;SDS011;55654;50.966;6.878;2023-07-13T15:11:43;3.50;;;1.17;;
43529;SDS011;55654;50.966;6.878;2023-07-13T15:16:55;3.03;;;1.30;;
43529;SDS011;55654;50.966;6.878;2023-07-13T15:19:21;5.43;;;1.15;;
43529;SDS011;55654;50.966;6.878;2023-07-13T15:21:51;2.25;;;0.90;;
43529;SDS011;55654;50.966;6.878;2023-07-13T15:24:19;4.53;;;1.00;;
43529;SDS011;55654;50.966;6.878;2023-07-13T15:26:45;2.90;;;0.77;;
43529;SDS011;55654;50.966;6.878;2023-07-13T15:29:13;9.02;;;1.38;;
43529;SDS011;55654;50.966;6.878;2023-07-13T15:31:39;3.67;;;1.20;;
43529;SDS011;55654;50.966;6.878;2023-07-13T15:34:15;2.00;;;0.85;;
43529;SDS011;55654;50.966;6.878;2023-07-13T15:36:42;7.32;;;1.00;;
43529;SDS011;55654;50.966;6.878;2023-07-13T15:39:10;3.78;;;0.90;;
43529;SDS011;55654;50.966;6.878;2023-07-13T15:41:40;4.40;;;1.15;;
43529;SDS011;55654;50.966;6.878;2023-07-13T15:44:39;5.75;;;1.20;;